Time;durP1;ratioP1;P1;durP2;ratioP2;P2;SDS_P1;SDS_P2;PMS_P1;PMS_P2;Temp;Humidity;BMP_temperature;BMP_pressure;BME280_temperature;BME280_humidity;BME280_pressure;Samples;Min_cycle;Max_cycle;Signal;HPM_P1;HPM_P2
2022/07/12 00:00:02;;;;;;;3.67;1.37;;;17.90;68.50;;;;;;5056880;28;20874;-76
2022/07/12 00:02:32;;;;;;;3.50;1.30;;;17.90;68.50;;;;;;5054726;28;20855;-77
2022/07/12 00:05:00;;;;;;;3.83;1.20;;;17.90;68.50;;;;;;5059245;28;20462;-77
2022/07/12 00:07:28;;;;;;;3.10;1.00;;;17.90;68.60;;;;;;5053382;28;20471;-77
2022/07/12 00:09:56;;;;;;;3.60;1.00;;;17.90;68.60;;;;;;5045999;28;20445;-76
2022/07/12 00:12:25;;;;;;;3.43;1.13;;;17.80;68.50;;;;;;5056983;28;21254;-77
2022/07/12 00:14:53;;;;;;;6.43;0.97;;;17.80;68.50;;;;;;5056420;28;20967;-74
2022/07/12 00:17:21;;;;;;;3.83;1.10;;;17.80;68.40;;;;;;5058467;28;20462;-76
2022/07/12 00:19:49;;;;;;;5.10;1.40;;;17.80;68.30;;;;;;5058840;28;20814;-76
2022/07/12 00:22:17;;;;;;;3.80;1.27;;;17.70;68.30;;;;;;5056964;28;20451;-76
2022/07/12 00:24:45;;;;;;;4.87;1.30;;;17.60;68.20;;;;;;5060834;28;21019;-74
2022/07/12 00:27:13;;;;;;;5.60;1.47;;;17.60;68.30;;;;;;5057302;28;20479;-75
2022/07/12 00:29:42;;;;;;;4.50;1.17;;;17.50;68.30;;;;;;5055403;28;20455;-76
2022/07/12 00:32:10;;;;;;;3.40;1.13;;;17.40;68.30;;;;;;5054298;28;20621;-77
2022/07/12 00:34:39;;;;;;;3.50;1.13;;;17.30;68.50;;;;;;5056217;28;20446;-76
2022/07/12 00:37:07;;;;;;;3.70;1.07;;;17.30;68.50;;;;;;5059167;28;20480;-76
2022/07/12 00:39:35;;;;;;;3.47;1.10;;;17.30;68.50;;;;;;5058855;28;20477;-76
2022/07/12 00:42:03;;;;;;;3.53;1.17;;;17.20;68.60;;;;;;5057972;28;20599;-76
2022/07/12 00:44:33;;;;;;;3.33;1.20;;;17.20;68.70;;;;;;5051067;28;20474;-76
2022/07/12 00:47:03;;;;;;;4.83;1.30;;;17.20;68.70;;;;;;5054989;28;20494;-76
2022/07/12 00:49:32;;;;;;;3.60;1.30;;;17.20;68.80;;;;;;5056071;28;21023;-75
2022/07/12 00:52:00;;;;;;;4.07;1.50;;;17.20;68.80;;;;;;5060975;28;20481;-76
2022/07/12 00:54:28;;;;;;;3.10;1.10;;;17.30;68.90;;;;;;5057922;28;20818;-76
2022/07/12 00:56:56;;;;;;;4.80;1.50;;;17.30;68.90;;;;;;5061259;28;20453;-76
2022/07/12 00:59:24;;;;;;;3.63;1.40;;;17.30;68.80;;;;;;5052842;28;20490;-76
2022/07/12 01:01:52;;;;;;;3.60;1.30;;;17.30;68.80;;;;;;5056050;28;20508;-76
2022/07/12 01:04:22;;;;;;;3.60;1.30;;;17.30;68.80;;;;;;5053279;28;20454;-75
2022/07/12 01:06:50;;;;;;;5.83;1.30;;;17.30;68.70;;;;;;5053799;28;20462;-76
2022/07/12 01:09:18;;;;;;;4.30;1.50;;;17.20;68.60;;;;;;5057017;28;20490;-76
2022/07/12 01:11:47;;;;;;;4.13;1.43;;;17.20;68.70;;;;;;5055060;28;20494;-76
2022/07/12 01:14:15;;;;;;;3.40;1.27;;;17.10;68.60;;;;;;5053867;28;20467;-76
2022/07/12 01:16:44;;;;;;;3.50;1.30;;;17.10;68.70;;;;;;5052136;28;20481;-76
2022/07/12 01:19:20;;;;;;;3.63;1.20;;;17.00;68.80;;;;;;5055267;28;20486;-76
2022/07/12 01:21:49;;;;;;;3.30;1.10;;;17.00;68.90;;;;;;5055417;28;20490;-76
2022/07/12 01:24:19;;;;;;;4.30;1.30;;;17.00;68.90;;;;;;5058376;28;20467;-76
2022/07/12 01:26:48;;;;;;;3.67;1.30;;;17.00;68.90;;;;;;5051825;28;20462;-76
2022/07/12 01:29:16;;;;;;;4.60;1.47;;;16.90;68.80;;;;;;5054467;28;20492;-76
2022/07/12 01:31:44;;;;;;;4.03;1.47;;;16.90;68.80;;;;;;5057658;28;20470;-75
2022/07/12 01:34:13;;;;;;;3.30;1.10;;;16.80;68.90;;;;;;5053278;28;20461;-75
2022/07/12 01:36:42;;;;;;;3.73;1.50;;;16.70;68.90;;;;;;5042543;28;20462;-75
2022/07/12 01:39:11;;;;;;;3.93;1.40;;;16.60;69.10;;;;;;5049747;28;20503;-76
2022/07/12 01:41:41;;;;;;;3.13;1.07;;;16.60;69.20;;;;;;5053659;28;20718;-76
2022/07/12 01:44:09;;;;;;;3.50;1.10;;;16.60;69.30;;;;;;5050454;28;20459;-75
2022/07/12 01:46:38;;;;;;;4.07;1.67;;;16.60;69.40;;;;;;5055475;28;20497;-76
2022/07/12 01:49:06;;;;;;;4.20;1.30;;;16.60;69.50;;;;;;5041477;28;20479;-76
2022/07/12 01:51:34;;;;;;;3.53;1.33;;;16.60;69.40;;;;;;5037626;28;20472;-76
2022/07/12 01:54:02;;;;;;;7.20;1.63;;;16.60;69.40;;;;;;5055559;28;20470;-76
2022/07/12 01:56:30;;;;;;;4.60;1.60;;;16.60;69.40;;;;;;5055102;28;20474;-76
2022/07/12 01:59:31;;;;;;;4.80;1.30;;;16.60;69.50;;;;;;5053793;28;20487;-76
2022/07/12 02:02:00;;;;;;;4.00;1.70;;;16.60;69.60;;;;;;5054834;28;20504;-76
2022/07/12 02:04:28;;;;;;;3.20;1.20;;;16.50;69.70;;;;;;5054675;28;20515;-76
2022/07/12 02:06:57;;;;;;;3.40;1.30;;;16.60;69.80;;;;;;5056709;28;20885;-76
2022/07/12 02:09:25;;;;;;;4.03;1.40;;;16.60;69.80;;;;;;5050406;28;20493;-75
2022/07/12 02:11:54;;;;;;;4.00;1.43;;;16.60;69.70;;;;;;5051588;28;20477;-76
2022/07/12 02:14:22;;;;;;;3.40;1.63;;;16.60;69.70;;;;;;5051528;28;20470;-76
2022/07/12 02:16:51;;;;;;;3.23;1.00;;;16.60;69.80;;;;;;5052795;28;20582;-76
2022/07/12 02:19:19;;;;;;;3.70;1.43;;;16.60;69.70;;;;;;5055396;28;20489;-75
2022/07/12 02:21:48;;;;;;;3.57;1.20;;;16.60;69.60;;;;;;5055715;28;20470;-76
2022/07/12 02:24:15;;;;;;;5.07;1.50;;;16.60;69.50;;;;;;5056047;28;20466;-76
2022/07/12 02:26:44;;;;;;;3.70;1.23;;;16.60;69.40;;;;;;5054199;28;20475;-76
2022/07/12 02:29:12;;;;;;;3.50;1.20;;;16.50;69.50;;;;;;5054796;28;20997;-76
2022/07/12 02:31:40;;;;;;;3.30;1.40;;;16.50;69.50;;;;;;5051779;28;20491;-76
2022/07/12 02:34:09;;;;;;;4.17;1.40;;;16.50;69.50;;;;;;5054837;28;20477;-76
2022/07/12 02:36:37;;;;;;;3.70;1.40;;;16.50;69.50;;;;;;5052333;28;20470;-75
2022/07/12 02:39:05;;;;;;;4.10;1.60;;;16.50;69.40;;;;;;5033637;28;20478;-76
2022/07/12 02:41:34;;;;;;;4.00;1.47;;;16.50;69.30;;;;;;5055246;28;20519;-76
2022/07/12 02:44:02;;;;;;;5.03;1.80;;;16.50;69.20;;;;;;5038289;28;20451;-76
2022/07/12 02:46:30;;;;;;;3.50;1.40;;;16.40;69.30;;;;;;5053042;28;20500;-76
2022/07/12 02:48:58;;;;;;;3.80;1.60;;;16.40;69.40;;;;;;5056431;28;20474;-76
2022/07/12 02:51:27;;;;;;;3.50;1.50;;;16.40;69.40;;;;;;5052986;28;21222;-76
2022/07/12 02:53:56;;;;;;;6.50;1.67;;;16.30;69.50;;;;;;5054606;28;20475;-76
2022/07/12 02:56:24;;;;;;;4.90;1.53;;;16.30;69.40;;;;;;5056017;28;20476;-76
2022/07/12 02:58:52;;;;;;;3.60;1.50;;;16.20;69.50;;;;;;5055619;28;21150;-77
2022/07/12 03:01:20;;;;;;;3.37;1.47;;;16.20;69.50;;;;;;5056000;28;20486;-75
2022/07/12 03:03:49;;;;;;;3.83;1.57;;;16.20;69.70;;;;;;5051426;28;20474;-75
2022/07/12 03:06:17;;;;;;;3.60;1.60;;;16.20;69.70;;;;;;5052196;28;20493;-75
2022/07/12 03:08:46;;;;;;;3.30;1.20;;;16.10;69.60;;;;;;5037069;28;20593;-75
2022/07/12 03:11:14;;;;;;;4.00;1.57;;;16.10;69.60;;;;;;5036385;28;21039;-76
2022/07/12 03:13:42;;;;;;;3.63;1.33;;;16.10;69.60;;;;;;5054482;28;20472;-76
2022/07/12 03:16:10;;;;;;;3.80;1.17;;;16.10;69.50;;;;;;5052805;28;20487;-76
2022/07/12 03:18:41;;;;;;;4.70;1.47;;;16.00;69.50;;;;;;5039053;28;20488;-76
2022/07/12 03:21:09;;;;;;;3.70;1.47;;;16.00;69.60;;;;;;5051269;28;20458;-76
2022/07/12 03:23:37;;;;;;;3.90;1.40;;;16.00;69.60;;;;;;5053135;28;20828;-76
2022/07/12 03:26:07;;;;;;;4.13;1.47;;;15.90;69.60;;;;;;5053655;28;20472;-75
2022/07/12 03:28:35;;;;;;;4.00;1.53;;;15.80;69.60;;;;;;5058162;28;20560;-76
2022/07/12 03:31:03;;;;;;;3.60;1.50;;;15.80;69.80;;;;;;5056960;28;21068;-76
2022/07/12 03:33:31;;;;;;;3.90;1.60;;;15.80;69.90;;;;;;5060923;28;20485;-76
2022/07/12 03:36:00;;;;;;;5.10;1.73;;;15.80;69.90;;;;;;5061542;28;20512;-76
2022/07/12 03:38:28;;;;;;;3.83;1.57;;;15.70;69.90;;;;;;5057525;28;20474;-76
2022/07/12 03:40:57;;;;;;;4.10;1.50;;;15.70;69.90;;;;;;5057809;28;20462;-76
2022/07/12 03:43:26;;;;;;;4.67;2.00;;;15.60;69.90;;;;;;5062995;28;20446;-74
2022/07/12 03:45:55;;;;;;;4.03;1.70;;;15.60;70.00;;;;;;5063750;28;21088;-75
2022/07/12 03:48:23;;;;;;;3.77;2.00;;;15.50;70.10;;;;;;5059473;28;20510;-76
2022/07/12 03:50:51;;;;;;;4.87;1.90;;;15.60;70.40;;;;;;5056201;28;20450;-75
2022/07/12 03:53:19;;;;;;;5.90;2.00;;;15.60;70.40;;;;;;5063701;28;20465;-75
2022/07/12 03:55:47;;;;;;;3.87;1.43;;;15.60;70.30;;;;;;5068790;28;20462;-75
2022/07/12 03:58:16;;;;;;;3.40;1.37;;;15.60;70.30;;;;;;5069127;28;20492;-75
2022/07/12 04:00:46;;;;;;;4.70;1.60;;;15.60;70.20;;;;;;5064492;28;20550;-75
2022/07/12 04:03:14;;;;;;;3.70;1.67;;;15.60;70.20;;;;;;5060946;28;20999;-77
2022/07/12 04:05:42;;;;;;;3.60;1.40;;;15.60;70.20;;;;;;5059303;28;20468;-74
2022/07/12 04:08:10;;;;;;;5.03;1.40;;;15.60;70.10;;;;;;5057020;28;20836;-76
2022/07/12 04:10:37;;;;;;;4.00;1.40;;;15.60;70.20;;;;;;5041607;28;20490;-75
2022/07/12 04:13:05;;;;;;;3.60;1.43;;;15.60;70.30;;;;;;5062212;28;20473;-75
2022/07/12 04:15:34;;;;;;;3.70;1.77;;;15.70;70.40;;;;;;5057239;28;20486;-76
2022/07/12 04:18:04;;;;;;;3.50;1.43;;;15.70;70.40;;;;;;5054497;28;20483;-75
2022/07/12 04:20:33;;;;;;;4.20;1.90;;;15.80;70.50;;;;;;5041978;28;21276;-75
2022/07/12 04:23:01;;;;;;;3.43;1.33;;;15.90;70.20;;;;;;5054352;28;20463;-75
2022/07/12 04:25:28;;;;;;;3.77;1.60;;;15.80;70.20;;;;;;5061242;28;20474;-75
2022/07/12 04:27:56;;;;;;;3.87;1.57;;;15.90;70.50;;;;;;5058412;28;20994;-74
2022/07/12 04:30:25;;;;;;;4.40;2.03;;;16.00;70.60;;;;;;5055168;28;21161;-76
2022/07/12 04:32:53;;;;;;;5.23;1.73;;;16.10;70.60;;;;;;5041926;28;20450;-75
2022/07/12 04:35:23;;;;;;;4.00;1.83;;;16.30;70.50;;;;;;5043615;28;20466;-75
2022/07/12 04:37:51;;;;;;;4.30;1.70;;;16.30;70.40;;;;;;5055688;28;21010;-75
2022/07/12 04:40:19;;;;;;;4.03;1.73;;;16.50;70.50;;;;;;5059522;28;20521;-75
2022/07/12 04:42:47;;;;;;;4.50;2.00;;;16.60;70.50;;;;;;5055377;28;20502;-75
2022/07/12 04:45:16;;;;;;;5.20;1.80;;;16.80;70.40;;;;;;5057139;28;20598;-76
2022/07/12 04:47:43;;;;;;;5.03;2.03;;;16.90;70.40;;;;;;5064487;28;20477;-76
2022/07/12 04:50:12;;;;;;;4.07;1.70;;;17.00;70.30;;;;;;5046396;28;20470;-76
2022/07/12 04:52:41;;;;;;;4.70;2.00;;;17.10;70.30;;;;;;5045814;28;20462;-75
2022/07/12 04:55:10;;;;;;;4.47;1.80;;;17.20;70.40;;;;;;5054863;28;20951;-76
2022/07/12 04:57:38;;;;;;;4.10;1.70;;;17.30;70.40;;;;;;5043820;28;20482;-75
2022/07/12 05:00:07;;;;;;;5.00;2.07;;;17.40;70.40;;;;;;5058214;28;20457;-75
2022/07/12 05:02:35;;;;;;;9.77;2.00;;;17.50;70.40;;;;;;5045134;28;20453;-76
2022/07/12 05:05:03;;;;;;;5.63;1.90;;;17.60;70.40;;;;;;5064152;28;20453;-76
2022/07/12 05:07:31;;;;;;;4.70;2.50;;;17.80;70.50;;;;;;5073025;28;20488;-76
2022/07/12 05:10:01;;;;;;;4.70;2.20;;;17.90;70.60;;;;;;5044225;28;20565;-76
2022/07/12 05:12:29;;;;;;;4.43;1.97;;;18.10;70.60;;;;;;5065726;28;20473;-75
2022/07/12 05:14:56;;;;;;;4.23;1.80;;;18.20;70.80;;;;;;5064767;28;20451;-76
2022/07/12 05:17:24;;;;;;;4.77;2.30;;;18.40;70.80;;;;;;5042292;28;21102;-74
2022/07/12 05:19:52;;;;;;;4.23;2.00;;;18.60;70.90;;;;;;5068476;28;20457;-75
2022/07/12 05:22:20;;;;;;;4.47;2.50;;;18.80;70.90;;;;;;5046002;28;20456;-76
2022/07/12 05:24:48;;;;;;;4.93;2.57;;;19.00;70.90;;;;;;5062467;28;20463;-76
2022/07/12 05:27:17;;;;;;;6.73;2.27;;;19.20;70.90;;;;;;5056011;28;20455;-76
2022/07/12 05:29:45;;;;;;;4.03;1.80;;;19.30;70.90;;;;;;5064059;28;21351;-75
2022/07/12 05:32:13;;;;;;;5.20;2.17;;;19.50;70.80;;;;;;5062953;28;20521;-76
2022/07/12 05:34:41;;;;;;;4.50;2.13;;;19.70;71.20;;;;;;5042736;28;20491;-74
2022/07/12 05:37:09;;;;;;;5.13;1.97;;;20.00;71.70;;;;;;5061903;28;20793;-75
2022/07/12 05:39:37;;;;;;;5.20;2.20;;;20.30;72.20;;;;;;5066233;28;20546;-76
2022/07/12 05:42:11;;;;;;;4.53;2.30;;;21.00;71.90;;;;;;5064320;28;20825;-75
2022/07/12 05:44:40;;;;;;;3.90;1.77;;;22.10;70.00;;;;;;5062673;28;20947;-75
2022/07/12 05:47:08;;;;;;;4.30;2.20;;;23.20;67.60;;;;;;5042192;28;21110;-76
2022/07/12 05:49:36;;;;;;;5.10;2.50;;;24.40;65.40;;;;;;5067508;28;20488;-76
2022/07/12 05:54:50;;;;;;;4.67;2.00;;;26.30;62.20;;;;;;5047150;28;20483;-77
2022/07/12 05:57:19;;;;;;;7.10;2.47;;;27.10;61.00;;;;;;5053949;28;20481;-76
2022/07/12 05:59:48;;;;;;;5.03;2.20;;;27.10;59.50;;;;;;5055326;28;20833;-77
2022/07/12 06:02:16;;;;;;;4.70;2.23;;;26.20;58.90;;;;;;5040172;28;20503;-74
2022/07/12 06:04:44;;;;;;;4.20;1.90;;;25.20;59.80;;;;;;5038586;28;20469;-75
2022/07/12 06:07:17;;;;;;;4.00;2.27;;;24.50;60.90;;;;;;5054509;28;20569;-76
2022/07/12 06:09:45;;;;;;;4.20;1.93;;;23.90;61.70;;;;;;5062359;28;20449;-74
2022/07/12 06:12:13;;;;;;;4.80;2.03;;;23.60;62.90;;;;;;5055771;28;20441;-76
2022/07/12 06:14:41;;;;;;;4.40;2.20;;;24.00;64.70;;;;;;5037040;28;21082;-75
2022/07/12 06:17:10;;;;;;;4.40;2.10;;;25.20;63.90;;;;;;5036355;28;20474;-73
2022/07/12 06:19:38;;;;;;;4.83;1.77;;;26.00;62.40;;;;;;5057015;28;20482;-78
2022/07/12 06:22:06;;;;;;;4.53;1.83;;;26.40;61.60;;;;;;5056785;28;20991;-76
2022/07/12 06:24:34;;;;;;;4.50;1.87;;;26.60;60.90;;;;;;5058467;28;20463;-76
2022/07/12 06:27:02;;;;;;;4.47;2.10;;;26.60;60.50;;;;;;5054065;28;20498;-78
2022/07/12 06:29:30;;;;;;;4.43;2.37;;;26.40;60.30;;;;;;5063890;28;20480;-76
2022/07/12 06:31:58;;;;;;;5.10;2.90;;;26.20;60.20;;;;;;5059423;28;20487;-78
2022/07/12 06:34:27;;;;;;;5.07;2.43;;;25.80;60.20;;;;;;5055483;28;20572;-77
2022/07/12 06:36:56;;;;;;;5.93;2.60;;;25.40;60.40;;;;;;5056329;28;20458;-75
2022/07/12 06:39:23;;;;;;;4.83;2.10;;;24.90;60.60;;;;;;5041028;28;20475;-75
2022/07/12 06:41:52;;;;;;;4.53;2.13;;;24.50;61.10;;;;;;5056327;28;20462;-78
2022/07/12 06:44:19;;;;;;;6.23;2.60;;;24.10;61.60;;;;;;5053528;28;20490;-76
2022/07/12 06:46:47;;;;;;;4.20;1.90;;;23.60;62.10;;;;;;5058586;28;20843;-77
2022/07/12 06:49:16;;;;;;;4.60;1.40;;;23.30;62.60;;;;;;5055357;28;20479;-76
2022/07/12 06:51:45;;;;;;;6.17;2.60;;;22.90;63.10;;;;;;5056266;28;20474;-75
2022/07/12 06:54:13;;;;;;;4.07;1.83;;;22.60;63.60;;;;;;5043308;28;20474;-77
2022/07/12 06:56:42;;;;;;;4.37;1.80;;;22.40;64.20;;;;;;5053603;28;20458;-77
2022/07/12 06:59:10;;;;;;;3.67;1.60;;;22.20;64.50;;;;;;5053453;28;20850;-77
2022/07/12 07:01:42;;;;;;;3.90;1.67;;;22.10;64.90;;;;;;5054825;28;20501;-75
2022/07/12 07:04:11;;;;;;;3.90;1.90;;;22.00;65.30;;;;;;5056439;28;20469;-73
2022/07/12 07:06:39;;;;;;;6.30;2.13;;;21.80;65.40;;;;;;5057428;28;20475;-76
2022/07/12 07:09:08;;;;;;;4.30;1.97;;;21.70;66.10;;;;;;5058420;28;20486;-75
2022/07/12 07:11:36;;;;;;;4.37;2.10;;;21.50;66.20;;;;;;5058145;28;20475;-77
2022/07/12 07:14:05;;;;;;;3.93;1.87;;;21.40;66.80;;;;;;5059421;28;20513;-76
2022/07/12 07:16:33;;;;;;;4.97;2.27;;;21.30;66.90;;;;;;5056414;28;20470;-76
2022/07/12 07:19:02;;;;;;;4.03;1.60;;;21.20;67.30;;;;;;5061024;28;20561;-77
2022/07/12 07:21:30;;;;;;;4.03;1.80;;;21.10;67.50;;;;;;5058654;28;20451;-76
2022/07/12 07:23:58;;;;;;;5.17;1.90;;;21.10;67.80;;;;;;5063801;28;20651;-77
2022/07/12 07:26:28;;;;;;;4.47;2.30;;;21.10;68.00;;;;;;5062050;28;20499;-77
2022/07/12 07:31:41;;;;;;;5.10;2.03;;;21.10;68.30;;;;;;5057175;28;20502;-76
2022/07/12 07:34:10;;;;;;;4.40;1.70;;;21.20;68.50;;;;;;5042858;28;20467;-76
2022/07/12 07:36:38;;;;;;;3.73;1.50;;;21.20;68.60;;;;;;5057539;28;21032;-75
2022/07/12 07:39:06;;;;;;;3.77;1.73;;;21.20;68.70;;;;;;5058008;28;20475;-76
2022/07/12 07:41:35;;;;;;;4.00;1.67;;;21.30;68.80;;;;;;5041965;28;20461;-73
2022/07/12 07:44:03;;;;;;;4.40;1.87;;;21.30;68.80;;;;;;5057033;28;20460;-76
2022/07/12 07:46:31;;;;;;;3.77;1.70;;;21.40;68.90;;;;;;5059955;28;20489;-77
2022/07/12 07:48:59;;;;;;;3.50;1.40;;;21.50;68.80;;;;;;5056023;28;20487;-75
2022/07/12 07:51:27;;;;;;;8.30;2.23;;;21.50;68.80;;;;;;5054161;28;20575;-76
2022/07/12 07:53:55;;;;;;;3.87;1.80;;;21.50;68.70;;;;;;5059011;28;20953;-75
2022/07/12 07:56:23;;;;;;;4.10;1.90;;;21.40;68.60;;;;;;5055912;28;20457;-76
2022/07/12 07:58:53;;;;;;;4.67;1.80;;;21.40;68.70;;;;;;5059160;28;21658;-76
2022/07/12 08:01:42;;;;;;;3.80;1.70;;;21.40;68.80;;;;;;5053518;28;20477;-73
2022/07/12 08:04:10;;;;;;;3.60;1.40;;;21.30;68.80;;;;;;5059159;28;20817;-75
2022/07/12 08:06:38;;;;;;;4.17;1.70;;;21.30;68.80;;;;;;5041703;28;20463;-76
2022/07/12 08:09:06;;;;;;;4.43;1.70;;;21.30;68.90;;;;;;5059917;28;20469;-76
2022/07/12 08:11:40;;;;;;;3.80;1.90;;;21.30;68.90;;;;;;5057396;28;20522;-76
2022/07/12 08:14:10;;;;;;;4.00;1.90;;;21.30;68.90;;;;;;5058143;28;20455;-75
2022/07/12 08:16:38;;;;;;;4.77;1.77;;;21.40;69.00;;;;;;5062727;28;20478;-76
2022/07/12 08:19:07;;;;;;;5.23;2.30;;;21.40;69.00;;;;;;5058319;28;20485;-77
2022/07/12 08:21:35;;;;;;;5.17;2.13;;;21.50;68.90;;;;;;5054106;28;20453;-76
2022/07/12 08:24:03;;;;;;;4.20;1.90;;;21.50;68.80;;;;;;5044147;28;20487;-77
2022/07/12 08:26:32;;;;;;;4.47;1.63;;;21.50;68.80;;;;;;5057128;28;20456;-76
2022/07/12 08:29:00;;;;;;;3.90;1.57;;;21.60;68.80;;;;;;5056675;28;20485;-74
2022/07/12 08:31:29;;;;;;;3.50;1.40;;;21.60;68.70;;;;;;5044871;28;20494;-76
2022/07/12 08:33:57;;;;;;;3.40;1.23;;;21.50;68.70;;;;;;5058069;28;20480;-76
2022/07/12 08:36:25;;;;;;;3.63;1.33;;;21.60;68.60;;;;;;5060682;28;21009;-76
2022/07/12 08:39:00;;;;;;;5.20;1.60;;;21.60;68.50;;;;;;5054798;28;20483;-74
2022/07/12 08:41:29;;;;;;;4.60;1.53;;;21.60;68.30;;;;;;5047768;28;20458;-75
2022/07/12 08:43:57;;;;;;;3.40;1.30;;;21.60;68.20;;;;;;5045350;28;20552;-76
2022/07/12 08:46:25;;;;;;;3.60;1.20;;;21.60;68.20;;;;;;5056346;28;20475;-76
2022/07/12 08:48:54;;;;;;;5.23;2.00;;;21.60;68.20;;;;;;5056773;28;20491;-76
2022/07/12 08:51:22;;;;;;;3.60;1.30;;;21.70;68.20;;;;;;5057636;28;20486;-77
2022/07/12 08:54:06;;;;;;;3.80;1.50;;;21.80;68.10;;;;;;5056407;28;20474;-76
2022/07/12 08:56:35;;;;;;;3.60;1.30;;;21.80;67.90;;;;;;5058153;28;20464;-76
2022/07/12 08:59:11;;;;;;;3.60;1.40;;;21.90;67.80;;;;;;5057151;28;20856;-74
2022/07/12 09:01:49;;;;;;;3.73;1.70;;;22.00;67.60;;;;;;5045597;28;20485;-74
2022/07/12 09:04:20;;;;;;;4.17;1.77;;;22.00;67.10;;;;;;5055680;28;20817;-76
2022/07/12 09:06:48;;;;;;;4.63;1.40;;;22.10;67.00;;;;;;5044305;28;20473;-75
2022/07/12 09:09:28;;;;;;;4.73;2.20;;;22.10;66.60;;;;;;5055251;28;21465;-73
2022/07/12 09:11:56;;;;;;;3.90;1.67;;;22.20;66.50;;;;;;5057385;28;20478;-75
2022/07/12 09:14:26;;;;;;;4.13;1.73;;;22.20;66.20;;;;;;5057130;28;20445;-76
2022/07/12 09:17:01;;;;;;;5.27;1.60;;;22.10;66.40;;;;;;5058596;28;20477;-76
2022/07/12 09:19:31;;;;;;;3.90;1.80;;;22.10;66.40;;;;;;5058988;28;20486;-76
2022/07/12 09:21:59;;;;;;;4.27;1.80;;;22.10;66.40;;;;;;5055617;28;20520;-73
2022/07/12 09:24:28;;;;;;;4.13;1.80;;;22.10;66.40;;;;;;5048902;28;20951;-75
2022/07/12 09:27:00;;;;;;;3.83;1.53;;;22.00;66.40;;;;;;5055129;28;20462;-75
2022/07/12 09:29:28;;;;;;;5.40;1.63;;;22.00;66.40;;;;;;5041359;28;20481;-75
2022/07/12 09:37:28;;;;;;;4.07;1.83;;;21.90;66.20;;;;;;5060084;28;20451;-73
2022/07/12 09:39:56;;;;;;;5.40;1.80;;;22.00;66.10;;;;;;5058100;28;20471;-73
2022/07/12 09:42:26;;;;;;;3.70;1.70;;;22.00;66.10;;;;;;5056476;28;20455;-72
2022/07/12 09:44:57;;;;;;;4.63;2.03;;;22.00;66.10;;;;;;5057357;28;20450;-74
2022/07/12 09:47:26;;;;;;;3.63;1.53;;;22.10;66.00;;;;;;5057147;28;20475;-74
2022/07/12 09:49:55;;;;;;;5.00;1.60;;;22.10;65.90;;;;;;5055914;28;20457;-75
2022/07/12 09:52:25;;;;;;;3.90;1.90;;;22.20;65.80;;;;;;5055697;28;21222;-75
2022/07/12 09:54:55;;;;;;;4.23;1.40;;;22.20;65.80;;;;;;5055241;28;20474;-75
2022/07/12 09:57:27;;;;;;;5.20;1.53;;;22.30;65.50;;;;;;5055803;28;20510;-73
2022/07/12 09:59:57;;;;;;;3.73;1.40;;;22.40;65.20;;;;;;5053654;28;20838;-74
2022/07/12 10:02:26;;;;;;;3.70;1.50;;;22.50;64.80;;;;;;5056303;28;20486;-74
2022/07/12 10:04:57;;;;;;;3.63;1.43;;;22.50;64.50;;;;;;5058030;28;20549;-74
2022/07/12 10:07:25;;;;;;;4.00;1.70;;;22.60;64.10;;;;;;5060548;28;20461;-74
2022/07/12 10:09:54;;;;;;;4.30;1.70;;;22.70;63.80;;;;;;5055544;28;20476;-74
2022/07/12 10:12:23;;;;;;;8.30;1.47;;;22.70;63.50;;;;;;5054825;28;20660;-74
2022/07/12 10:14:58;;;;;;;3.57;1.43;;;22.80;63.50;;;;;;5037608;28;20455;-74
2022/07/12 10:17:27;;;;;;;4.13;1.60;;;22.80;63.20;;;;;;5057149;28;21030;-74
2022/07/12 10:20:17;;;;;;;4.10;1.50;;;22.90;63.00;;;;;;5059121;28;20459;-74
2022/07/12 10:22:46;;;;;;;4.03;1.50;;;22.90;62.70;;;;;;5043880;28;20577;-74
2022/07/12 10:25:33;;;;;;;5.50;1.80;;;22.90;62.50;;;;;;5053448;28;20455;-74
2022/07/12 10:28:03;;;;;;;3.70;1.20;;;23.00;62.40;;;;;;5037481;28;20496;-75
2022/07/12 10:30:41;;;;;;;4.30;1.70;;;23.00;62.20;;;;;;5038436;28;20474;-72
2022/07/12 10:33:16;;;;;;;3.83;1.47;;;23.00;61.90;;;;;;5053771;28;20466;-72
2022/07/12 10:36:01;;;;;;;3.30;1.27;;;23.10;61.90;;;;;;5058477;28;20463;-72
2022/07/12 10:38:29;;;;;;;3.83;1.60;;;23.20;61.90;;;;;;5057728;28;20475;-74
2022/07/12 10:40:57;;;;;;;4.57;1.60;;;23.20;61.90;;;;;;5058574;28;20469;-74
2022/07/12 10:46:24;;;;;;;3.70;1.57;;;23.20;61.70;;;;;;5068503;28;20481;-73
2022/07/12 10:49:21;;;;;;;4.23;1.40;;;23.20;61.50;;;;;;5064455;28;20524;-74
2022/07/12 10:52:23;;;;;;;4.00;1.30;;;23.20;61.50;;;;;;5061135;28;20455;-74
2022/07/12 10:55:18;;;;;;;4.40;1.50;;;23.30;61.40;;;;;;5062874;28;20482;-73
2022/07/12 10:57:50;;;;;;;4.53;1.60;;;23.30;61.40;;;;;;5062784;28;20645;-74
2022/07/12 11:00:19;;;;;;;3.20;1.10;;;23.40;61.30;;;;;;5058659;28;20797;-75
2022/07/12 11:02:47;;;;;;;4.50;1.80;;;23.40;61.20;;;;;;5057904;28;20528;-74
2022/07/12 11:05:15;;;;;;;4.30;1.37;;;23.50;61.20;;;;;;5055596;28;20456;-75
2022/07/12 11:07:45;;;;;;;4.80;1.30;;;23.50;61.00;;;;;;5062309;28;21008;-75
2022/07/12 11:10:14;;;;;;;4.80;1.40;;;23.60;60.90;;;;;;5057787;28;20469;-75
2022/07/12 11:12:42;;;;;;;4.80;1.33;;;23.60;60.90;;;;;;5060014;28;20598;-75
2022/07/12 11:15:12;;;;;;;3.40;1.30;;;23.60;60.60;;;;;;5056899;28;20455;-75
2022/07/12 11:17:40;;;;;;;3.80;1.37;;;23.60;60.50;;;;;;5057949;28;20474;-75
2022/07/12 11:20:11;;;;;;;6.40;1.37;;;23.60;60.40;;;;;;5060109;28;20549;-75
2022/07/12 11:22:40;;;;;;;3.90;1.63;;;23.60;60.50;;;;;;5060625;28;20491;-75
2022/07/12 11:25:12;;;;;;;5.20;1.47;;;23.60;60.50;;;;;;5061876;28;20455;-75
2022/07/12 11:27:41;;;;;;;5.10;1.50;;;23.70;60.20;;;;;;5059316;28;20447;-75
2022/07/12 11:30:10;;;;;;;4.80;1.60;;;23.70;60.20;;;;;;5058362;28;20462;-73
2022/07/12 11:32:40;;;;;;;4.33;1.30;;;23.80;60.20;;;;;;5060584;28;20456;-74
2022/07/12 11:35:22;;;;;;;3.50;1.10;;;23.80;60.10;;;;;;5056394;28;20452;-74
2022/07/12 11:37:51;;;;;;;3.60;1.30;;;23.80;59.90;;;;;;5059681;28;20545;-74
2022/07/12 11:40:29;;;;;;;7.50;1.40;;;23.80;59.60;;;;;;5050321;28;20456;-74
2022/07/12 11:42:59;;;;;;;5.40;1.60;;;23.90;59.60;;;;;;5042906;28;20450;-74
2022/07/12 11:45:28;;;;;;;3.80;1.40;;;23.90;59.60;;;;;;5058778;28;20506;-75
2022/07/12 11:47:58;;;;;;;3.50;1.40;;;24.00;59.30;;;;;;5057605;28;20511;-75
2022/07/12 11:50:26;;;;;;;3.90;1.43;;;24.00;59.50;;;;;;5050614;28;21058;-75
2022/07/12 11:53:01;;;;;;;3.90;1.47;;;24.10;59.40;;;;;;5039064;28;20473;-75
2022/07/12 11:55:31;;;;;;;3.67;1.03;;;24.20;59.30;;;;;;4132617;28;10000189;-73
2022/07/12 11:58:05;;;;;;;3.87;1.37;;;24.20;59.10;;;;;;5055826;28;20230;-75
2022/07/12 12:00:33;;;;;;;4.07;1.20;;;24.30;58.80;;;;;;5052739;28;20467;-75
2022/07/12 12:03:01;;;;;;;3.63;1.27;;;24.30;58.80;;;;;;5057182;28;21053;-75
2022/07/12 12:05:30;;;;;;;3.73;1.30;;;24.40;58.60;;;;;;5058209;28;20897;-74
2022/07/12 12:07:58;;;;;;;3.70;1.30;;;24.40;58.50;;;;;;5058714;28;20571;-74
2022/07/12 12:10:26;;;;;;;3.77;1.27;;;24.40;58.30;;;;;;5060008;28;20448;-74
2022/07/12 12:12:56;;;;;;;4.07;1.67;;;24.40;58.30;;;;;;5054350;28;20463;-74
2022/07/12 12:15:27;;;;;;;3.30;1.10;;;24.50;58.20;;;;;;5052067;28;20982;-74
2022/07/12 12:17:57;;;;;;;3.60;1.30;;;24.60;58.30;;;;;;5055739;28;21058;-74
2022/07/12 12:20:26;;;;;;;3.40;1.10;;;24.70;58.20;;;;;;5056764;28;20533;-74
2022/07/12 12:22:55;;;;;;;3.80;1.20;;;24.70;58.00;;;;;;5055108;28;20463;-74
2022/07/12 12:25:26;;;;;;;6.67;1.40;;;24.70;57.90;;;;;;5056871;28;20466;-73
2022/07/12 12:27:58;;;;;;;3.80;1.40;;;24.70;57.90;;;;;;5056339;28;20470;-74
2022/07/12 12:30:50;;;;;;;3.67;1.57;;;24.70;57.60;;;;;;5057868;28;20504;-72
2022/07/12 12:33:36;;;;;;;3.53;1.17;;;24.80;57.60;;;;;;5054992;28;20457;-74
2022/07/12 12:36:29;;;;;;;3.57;1.20;;;24.80;57.50;;;;;;5053001;28;20463;-74
2022/07/12 12:38:58;;;;;;;3.27;0.90;;;24.80;57.40;;;;;;5037857;28;20518;-74
2022/07/12 12:41:28;;;;;;;3.20;0.93;;;24.90;57.40;;;;;;5056745;28;20468;-74
2022/07/12 12:44:03;;;;;;;3.40;1.30;;;24.90;57.30;;;;;;5054940;28;20952;-74
2022/07/12 12:46:45;;;;;;;3.43;1.20;;;24.90;57.00;;;;;;5053629;28;20473;-74
2022/07/12 12:49:13;;;;;;;3.90;1.20;;;25.00;56.40;;;;;;5056662;28;20476;-74
2022/07/12 12:51:55;;;;;;;4.63;1.20;;;25.00;56.90;;;;;;5060314;28;20453;-74
2022/07/12 12:54:34;;;;;;;3.50;1.30;;;25.10;56.80;;;;;;5056002;28;20489;-74
2022/07/12 12:57:02;;;;;;;3.33;1.17;;;25.10;56.80;;;;;;5058510;28;20450;-74
2022/07/12 12:59:32;;;;;;;3.30;1.20;;;25.20;56.60;;;;;;5053422;28;20473;-74
2022/07/12 13:02:00;;;;;;;4.03;1.30;;;25.20;56.40;;;;;;5050356;28;20478;-74
2022/07/12 13:04:30;;;;;;;3.70;1.17;;;25.20;56.30;;;;;;5055797;28;20889;-74
2022/07/12 13:06:58;;;;;;;3.40;1.20;;;25.20;56.30;;;;;;5054386;28;20458;-74
2022/07/12 13:10:13;;;;;;;3.40;1.30;;;25.20;56.20;;;;;;5057726;28;20483;-74
2022/07/12 13:13:24;;;;;;;4.70;1.30;;;25.30;56.10;;;;;;5060017;28;20449;-74